sensor_id;sensor_type;location;lat;lon;timestamp;temperature;humidity
5520;DHT22;2782;52.362;10.012;2022-09-20T00:05:22;20.10;88.60
5520;DHT22;2782;52.362;10.012;2022-09-20T00:12:05;20.10;88.50
5520;DHT22;2782;52.362;10.012;2022-09-20T00:18:47;20.10;88.30
5520;DHT22;2782;52.362;10.012;2022-09-20T00:25:30;20.10;88.30
5520;DHT22;2782;52.362;10.012;2022-09-20T00:32:14;20.00;88.10
5520;DHT22;2782;52.362;10.012;2022-09-20T00:38:56;20.00;88.00
5520;DHT22;2782;52.362;10.012;2022-09-20T00:45:37;20.00;87.90
5520;DHT22;2782;52.362;10.012;2022-09-20T00:52:20;19.90;87.80
5520;DHT22;2782;52.362;10.012;2022-09-20T00:59:08;19.90;87.60
5520;DHT22;2782;52.362;10.012;2022-09-20T01:05:52;19.90;87.50
5520;DHT22;2782;52.362;10.012;2022-09-20T01:12:37;19.90;87.40
5520;DHT22;2782;52.362;10.012;2022-09-20T01:19:28;19.90;87.30
5520;DHT22;2782;52.362;10.012;2022-09-20T01:26:36;19.80;87.10
5520;DHT22;2782;52.362;10.012;2022-09-20T01:33:28;19.80;87.00
5520;DHT22;2782;52.362;10.012;2022-09-20T01:40:16;19.80;87.00
5520;DHT22;2782;52.362;10.012;2022-09-20T01:47:03;19.80;86.90
5520;DHT22;2782;52.362;10.012;2022-09-20T01:54:16;19.80;86.80
5520;DHT22;2782;52.362;10.012;2022-09-20T02:01:20;19.70;87.30
5520;DHT22;2782;52.362;10.012;2022-09-20T02:08:19;19.70;86.50
5520;DHT22;2782;52.362;10.012;2022-09-20T02:15:22;19.70;86.40
5520;DHT22;2782;52.362;10.012;2022-09-20T02:22:21;19.70;86.30
5520;DHT22;2782;52.362;10.012;2022-09-20T02:29:16;19.70;86.20
5520;DHT22;2782;52.362;10.012;2022-09-20T02:36:19;19.60;86.00
5520;DHT22;2782;52.362;10.012;2022-09-20T02:43:09;19.60;86.00
5520;DHT22;2782;52.362;10.012;2022-09-20T02:50:06;19.60;86.00
5520;DHT22;2782;52.362;10.012;2022-09-20T02:56:57;19.60;85.90
5520;DHT22;2782;52.362;10.012;2022-09-20T03:03:49;19.60;85.90
5520;DHT22;2782;52.362;10.012;2022-09-20T03:10:36;19.60;85.80
5520;DHT22;2782;52.362;10.012;2022-09-20T03:17:24;19.60;85.80
5520;DHT22;2782;52.362;10.012;2022-09-20T03:24:17;19.60;85.60
5520;DHT22;2782;52.362;10.012;2022-09-20T03:31:05;19.50;85.60
5520;DHT22;2782;52.362;10.012;2022-09-20T03:38:02;19.50;85.50
5520;DHT22;2782;52.362;10.012;2022-09-20T03:45:15;19.50;85.50
5520;DHT22;2782;52.362;10.012;2022-09-20T03:52:11;19.50;85.60
5520;DHT22;2782;52.362;10.012;2022-09-20T03:59:17;19.50;85.80
5520;DHT22;2782;52.362;10.012;2022-09-20T04:06:21;19.50;85.80
5520;DHT22;2782;52.362;10.012;2022-09-20T04:13:18;19.50;85.90
5520;DHT22;2782;52.362;10.012;2022-09-20T04:20:06;19.60;86.00
5520;DHT22;2782;52.362;10.012;2022-09-20T04:26:57;19.60;86.00
5520;DHT22;2782;52.362;10.012;2022-09-20T04:33:43;19.60;85.90
5520;DHT22;2782;52.362;10.012;2022-09-20T04:40:46;19.70;85.90
5520;DHT22;2782;52.362;10.012;2022-09-20T04:55:33;19.70;85.70
5520;DHT22;2782;52.362;10.012;2022-09-20T05:09:55;19.80;90.70
5520;DHT22;2782;52.362;10.012;2022-09-20T05:16:58;19.80;91.50
5520;DHT22;2782;52.362;10.012;2022-09-20T05:23:59;19.90;91.80
5520;DHT22;2782;52.362;10.012;2022-09-20T05:30:48;19.90;92.10
5520;DHT22;2782;52.362;10.012;2022-09-20T05:37:40;19.90;91.70
5520;DHT22;2782;52.362;10.012;2022-09-20T05:44:30;19.90;91.50
5520;DHT22;2782;52.362;10.012;2022-09-20T05:51:19;19.90;91.20
5520;DHT22;2782;52.362;10.012;2022-09-20T05:58:22;19.80;91.00
5520;DHT22;2782;52.362;10.012;2022-09-20T06:05:12;19.80;91.00
5520;DHT22;2782;52.362;10.012;2022-09-20T06:12:19;19.80;91.10
5520;DHT22;2782;52.362;10.012;2022-09-20T06:19:15;19.80;91.10
5520;DHT22;2782;52.362;10.012;2022-09-20T06:26:01;19.70;90.80
5520;DHT22;2782;52.362;10.012;2022-09-20T06:32:55;19.70;90.60
5520;DHT22;2782;52.362;10.012;2022-09-20T06:39:42;19.70;90.30
5520;DHT22;2782;52.362;10.012;2022-09-20T06:46:44;19.70;90.10
5520;DHT22;2782;52.362;10.012;2022-09-20T06:53:27;19.70;90.00
5520;DHT22;2782;52.362;10.012;2022-09-20T07:00:13;19.70;89.70
5520;DHT22;2782;52.362;10.012;2022-09-20T07:06:58;19.70;89.60
5520;DHT22;2782;52.362;10.012;2022-09-20T07:13:40;19.70;89.40
5520;DHT22;2782;52.362;10.012;2022-09-20T07:20:23;19.60;89.10
5520;DHT22;2782;52.362;10.012;2022-09-20T07:27:05;19.60;88.90
5520;DHT22;2782;52.362;10.012;2022-09-20T07:33:47;19.60;88.70
5520;DHT22;2782;52.362;10.012;2022-09-20T07:40:30;19.60;88.50
5520;DHT22;2782;52.362;10.012;2022-09-20T07:47:12;19.60;88.40
5520;DHT22;2782;52.362;10.012;2022-09-20T07:53:54;19.60;88.20
5520;DHT22;2782;52.362;10.012;2022-09-20T08:00:37;19.60;89.20
5520;DHT22;2782;52.362;10.012;2022-09-20T08:07:18;19.60;90.40
5520;DHT22;2782;52.362;10.012;2022-09-20T08:14:01;19.60;90.70
5520;DHT22;2782;52.362;10.012;2022-09-20T08:20:44;19.60;90.90
5520;DHT22;2782;52.362;10.012;2022-09-20T08:27:25;19.70;90.70
5520;DHT22;2782;52.362;10.012;2022-09-20T08:34:08;19.60;90.50
5520;DHT22;2782;52.362;10.012;2022-09-20T08:40:53;19.60;90.30
5520;DHT22;2782;52.362;10.012;2022-09-20T08:47:38;19.60;90.20
5520;DHT22;2782;52.362;10.012;2022-09-20T08:54:24;19.50;90.10
5520;DHT22;2782;52.362;10.012;2022-09-20T09:01:10;19.50;90.00
5520;DHT22;2782;52.362;10.012;2022-09-20T09:07:53;19.50;90.00
5520;DHT22;2782;52.362;10.012;2022-09-20T09:14:35;19.50;89.80
5520;DHT22;2782;52.362;10.012;2022-09-20T09:21:30;19.50;89.80
5520;DHT22;2782;52.362;10.012;2022-09-20T09:28:13;19.50;89.60
5520;DHT22;2782;52.362;10.012;2022-09-20T09:34:55;19.50;89.50
5520;DHT22;2782;52.362;10.012;2022-09-20T09:41:38;19.50;89.30
5520;DHT22;2782;52.362;10.012;2022-09-20T09:48:23;19.50;89.30
5520;DHT22;2782;52.362;10.012;2022-09-20T09:55:07;19.50;89.10
5520;DHT22;2782;52.362;10.012;2022-09-20T10:01:59;19.50;89.00
5520;DHT22;2782;52.362;10.012;2022-09-20T10:09:04;19.40;88.90
5520;DHT22;2782;52.362;10.012;2022-09-20T10:15:53;19.40;88.70
5520;DHT22;2782;52.362;10.012;2022-09-20T10:22:44;19.40;88.50
5520;DHT22;2782;52.362;10.012;2022-09-20T10:29:35;19.40;88.50
5520;DHT22;2782;52.362;10.012;2022-09-20T10:36:26;19.40;88.40
5520;DHT22;2782;52.362;10.012;2022-09-20T10:43:25;19.40;88.30
5520;DHT22;2782;52.362;10.012;2022-09-20T10:50:19;19.40;88.20
5520;DHT22;2782;52.362;10.012;2022-09-20T10:57:21;19.40;88.20
5520;DHT22;2782;52.362;10.012;2022-09-20T11:04:26;19.40;88.10
5520;DHT22;2782;52.362;10.012;2022-09-20T11:11:16;19.40;88.00
5520;DHT22;2782;52.362;10.012;2022-09-20T11:18:03;19.40;87.90
5520;DHT22;2782;52.362;10.012;2022-09-20T11:24:51;19.40;87.90
5520;DHT22;2782;52.362;10.012;2022-09-20T11:31:38;19.40;87.80
5520;DHT22;2782;52.362;10.012;2022-09-20T11:38:26;19.40;87.70
5520;DHT22;2782;52.362;10.012;2022-09-20T11:45:11;19.40;87.60
5520;DHT22;2782;52.362;10.012;2022-09-20T11:52:10;19.40;87.60
5520;DHT22;2782;52.362;10.012;2022-09-20T11:58:57;19.40;87.60
5520;DHT22;2782;52.362;10.012;2022-09-20T12:05:41;19.40;87.50
5520;DHT22;2782;52.362;10.012;2022-09-20T12:12:30;19.40;87.50
5520;DHT22;2782;52.362;10.012;2022-09-20T12:19:13;19.40;87.40
5520;DHT22;2782;52.362;10.012;2022-09-20T12:26:00;19.30;87.30
5520;DHT22;2782;52.362;10.012;2022-09-20T12:32:53;19.30;87.30
5520;DHT22;2782;52.362;10.012;2022-09-20T12:39:36;19.30;87.20
5520;DHT22;2782;52.362;10.012;2022-09-20T12:46:25;19.30;87.10
5520;DHT22;2782;52.362;10.012;2022-09-20T12:53:12;19.30;87.00
5520;DHT22;2782;52.362;10.012;2022-09-20T12:59:55;19.30;87.00
5520;DHT22;2782;52.362;10.012;2022-09-20T13:06:39;19.40;87.10
5520;DHT22;2782;52.362;10.012;2022-09-20T13:13:30;19.30;86.90
5520;DHT22;2782;52.362;10.012;2022-09-20T13:20:16;19.40;86.80
5520;DHT22;2782;52.362;10.012;2022-09-20T13:27:03;19.40;86.70
5520;DHT22;2782;52.362;10.012;2022-09-20T13:33:46;19.30;75.50
5520;DHT22;2782;52.362;10.012;2022-09-20T13:40:32;19.10;70.20
5520;DHT22;2782;52.362;10.012;2022-09-20T13:47:25;19.00;73.20
5520;DHT22;2782;52.362;10.012;2022-09-20T13:54:18;18.90;69.70
5520;DHT22;2782;52.362;10.012;2022-09-20T14:01:02;18.90;71.50
5520;DHT22;2782;52.362;10.012;2022-09-20T14:07:46;18.80;72.40
5520;DHT22;2782;52.362;10.012;2022-09-20T14:14:28;18.80;75.20
5520;DHT22;2782;52.362;10.012;2022-09-20T14:21:11;19.00;75.50
5520;DHT22;2782;52.362;10.012;2022-09-20T14:28:16;19.10;75.90
5520;DHT22;2782;52.362;10.012;2022-09-20T14:35:02;19.20;76.20
5520;DHT22;2782;52.362;10.012;2022-09-20T14:41:44;19.20;76.20
5520;DHT22;2782;52.362;10.012;2022-09-20T14:48:34;19.20;76.60
5520;DHT22;2782;52.362;10.012;2022-09-20T14:55:19;19.20;76.50
5520;DHT22;2782;52.362;10.012;2022-09-20T15:02:12;19.30;76.80
5520;DHT22;2782;52.362;10.012;2022-09-20T15:08:55;19.30;77.10
5520;DHT22;2782;52.362;10.012;2022-09-20T15:15:39;19.30;77.10
5520;DHT22;2782;52.362;10.012;2022-09-20T15:22:23;19.20;77.20
5520;DHT22;2782;52.362;10.012;2022-09-20T15:29:12;19.30;77.60
5520;DHT22;2782;52.362;10.012;2022-09-20T15:35:54;19.20;78.50
5520;DHT22;2782;52.362;10.012;2022-09-20T15:42:36;19.30;79.20
5520;DHT22;2782;52.362;10.012;2022-09-20T15:49:22;19.30;80.10
5520;DHT22;2782;52.362;10.012;2022-09-20T15:56:12;19.30;80.90
5520;DHT22;2782;52.362;10.012;2022-09-20T16:02:54;19.30;81.50
5520;DHT22;2782;52.362;10.012;2022-09-20T16:09:37;19.40;85.60
5520;DHT22;2782;52.362;10.012;2022-09-20T16:16:19;19.50;93.40
5520;DHT22;2782;52.362;10.012;2022-09-20T16:23:00;19.50;93.60
5520;DHT22;2782;52.362;10.012;2022-09-20T16:29:43;19.50;93.60
5520;DHT22;2782;52.362;10.012;2022-09-20T16:36:25;19.60;97.00
5520;DHT22;2782;52.362;10.012;2022-09-20T16:43:06;19.90;97.30
5520;DHT22;2782;52.362;10.012;2022-09-20T16:49:49;20.00;96.90
5520;DHT22;2782;52.362;10.012;2022-09-20T16:56:34;19.90;97.10
5520;DHT22;2782;52.362;10.012;2022-09-20T17:03:15;19.90;97.30
5520;DHT22;2782;52.362;10.012;2022-09-20T17:09:58;20.00;98.20
5520;DHT22;2782;52.362;10.012;2022-09-20T17:16:41;20.00;97.80
5520;DHT22;2782;52.362;10.012;2022-09-20T17:23:22;20.10;98.20
5520;DHT22;2782;52.362;10.012;2022-09-20T17:30:07;20.20;99.10
5520;DHT22;2782;52.362;10.012;2022-09-20T17:36:49;20.30;99.70
5520;DHT22;2782;52.362;10.012;2022-09-20T17:43:31;20.30;99.70
5520;DHT22;2782;52.362;10.012;2022-09-20T17:50:14;20.40;99.60
5520;DHT22;2782;52.362;10.012;2022-09-20T17:56:55;20.40;99.40
5520;DHT22;2782;52.362;10.012;2022-09-20T18:03:38;20.40;98.50
5520;DHT22;2782;52.362;10.012;2022-09-20T18:10:21;20.40;98.80
5520;DHT22;2782;52.362;10.012;2022-09-20T18:17:08;20.40;98.20
5520;DHT22;2782;52.362;10.012;2022-09-20T18:23:50;20.30;97.90
5520;DHT22;2782;52.362;10.012;2022-09-20T18:30:33;20.30;97.60
5520;DHT22;2782;52.362;10.012;2022-09-20T18:37:15;20.20;97.30
5520;DHT22;2782;52.362;10.012;2022-09-20T18:43:57;20.30;97.40
5520;DHT22;2782;52.362;10.012;2022-09-20T18:50:41;20.30;97.70
5520;DHT22;2782;52.362;10.012;2022-09-20T18:57:22;20.30;98.20
5520;DHT22;2782;52.362;10.012;2022-09-20T19:04:11;20.30;98.40
5520;DHT22;2782;52.362;10.012;2022-09-20T19:11:08;20.40;98.50
5520;DHT22;2782;52.362;10.012;2022-09-20T19:18:02;20.40;98.50
5520;DHT22;2782;52.362;10.012;2022-09-20T19:25:00;20.40;98.70
5520;DHT22;2782;52.362;10.012;2022-09-20T19:31:46;20.40;98.80
5520;DHT22;2782;52.362;10.012;2022-09-20T19:38:34;20.40;98.80
5520;DHT22;2782;52.362;10.012;2022-09-20T19:45:22;20.40;98.70
5520;DHT22;2782;52.362;10.012;2022-09-20T19:52:11;20.40;98.80
5520;DHT22;2782;52.362;10.012;2022-09-20T19:58:54;20.40;98.60
5520;DHT22;2782;52.362;10.012;2022-09-20T20:05:36;20.40;98.50
5520;DHT22;2782;52.362;10.012;2022-09-20T20:12:23;20.40;98.40
5520;DHT22;2782;52.362;10.012;2022-09-20T20:19:34;20.40;99.90
5520;DHT22;2782;52.362;10.012;2022-09-20T20:26:20;20.40;99.90
5520;DHT22;2782;52.362;10.012;2022-09-20T20:33:04;20.50;99.90
5520;DHT22;2782;52.362;10.012;2022-09-20T20:39:46;20.50;99.90
5520;DHT22;2782;52.362;10.012;2022-09-20T20:46:28;20.40;95.40
5520;DHT22;2782;52.362;10.012;2022-09-20T20:53:13;20.30;94.80
5520;DHT22;2782;52.362;10.012;2022-09-20T20:59:55;20.20;94.40
5520;DHT22;2782;52.362;10.012;2022-09-20T21:06:38;20.20;93.70
5520;DHT22;2782;52.362;10.012;2022-09-20T21:13:22;20.10;92.90
5520;DHT22;2782;52.362;10.012;2022-09-20T21:20:04;20.00;91.50
5520;DHT22;2782;52.362;10.012;2022-09-20T21:26:45;20.00;90.40
5520;DHT22;2782;52.362;10.012;2022-09-20T21:33:31;19.90;88.90
5520;DHT22;2782;52.362;10.012;2022-09-20T21:40:13;19.80;88.20
5520;DHT22;2782;52.362;10.012;2022-09-20T21:46:55;19.70;86.10
5520;DHT22;2782;52.362;10.012;2022-09-20T21:53:40;19.60;86.40
5520;DHT22;2782;52.362;10.012;2022-09-20T22:00:21;19.60;89.40
5520;DHT22;2782;52.362;10.012;2022-09-20T22:07:05;19.70;90.40
5520;DHT22;2782;52.362;10.012;2022-09-20T22:13:50;19.70;90.60
5520;DHT22;2782;52.362;10.012;2022-09-20T22:20:32;19.80;90.70
5520;DHT22;2782;52.362;10.012;2022-09-20T22:27:13;19.80;90.70
5520;DHT22;2782;52.362;10.012;2022-09-20T22:33:59;19.80;90.80
5520;DHT22;2782;52.362;10.012;2022-09-20T22:40:51;19.80;90.90
5520;DHT22;2782;52.362;10.012;2022-09-20T22:47:33;19.80;91.10
5520;DHT22;2782;52.362;10.012;2022-09-20T22:54:15;19.80;91.10
5520;DHT22;2782;52.362;10.012;2022-09-20T23:01:06;19.70;91.20
5520;DHT22;2782;52.362;10.012;2022-09-20T23:07:48;19.70;91.30
5520;DHT22;2782;52.362;10.012;2022-09-20T23:14:31;19.70;91.30
5520;DHT22;2782;52.362;10.012;2022-09-20T23:21:13;19.70;91.30
5520;DHT22;2782;52.362;10.012;2022-09-20T23:27:55;19.70;91.40
5520;DHT22;2782;52.362;10.012;2022-09-20T23:34:38;19.70;91.40
5520;DHT22;2782;52.362;10.012;2022-09-20T23:41:21;19.70;91.80
5520;DHT22;2782;52.362;10.012;2022-09-20T23:48:04;19.60;91.50
5520;DHT22;2782;52.362;10.012;2022-09-20T23:54:47;19.60;91.50
